Celsius Malaga — V7QT5 — position and weather

sailwx.info

Track history (hours):
 
Tides and Currents Weather Stations Pressure Air Temp Water Temp Dewpoint Dewpoint Depression Visibility Wind Speed Wind Dir Waves Ship Positions

Celsius Malaga

Last reported at 2017-Jun-03 11:48 UTC. Time now 2017-Jun-23 10:38 UTC.
Position S 24°42' W 046°42'.
Warning: this ship's position is 19 days out of date.

Length 147 m; draft 8.1 m.

MMSI: 538003434.

Date/timePositionNaut miles runAvg speedWind from/ knotsBaromVisibWave heightAir tempDewpointWater temp
2017-Jun-03 11:48S 24°42' W 046°42'512.7
2017-Jun-03 11:24S 24°38' W 046°38'612.7
2017-Jun-03 10:55S 24°33' W 046°34'512.7
2017-Jun-03 10:30S 24°29' W 046°31'612.7
2017-Jun-03 10:00S 24°24' W 046°26'612.6
2017-Jun-03 09:30S 24°18' W 046°24'612.7
2017-Jun-03 09:00S 24°11' W 046°24'612.6
2017-Jun-03 08:30S 24°05' W 046°22'510.7
2017-Jun-03 08:00S 24°00' W 046°20'  
2017-May-31 15:18S 23°59' W 046°17'4 7.7
2017-May-31 14:49S 24°01' W 046°21'7 8.9
2017-May-31 14:00S 24°07' W 046°25'3 6.3
2017-May-31 13:30S 24°10' W 046°27'1 1.6
2017-May-31 13:00S 24°11' W 046°26'4 7.4
2017-May-31 12:30S 24°14' W 046°24'4 8.6
2017-May-31 12:00S 24°18' W 046°22'612.2
2017-May-31 11:30S 24°24' W 046°21'812.8
2017-May-31 10:55S 24°31' W 046°20'4 9.5
2017-May-31 10:29S 24°33' W 046°16'  
Track history (hours):
 
Tides and Currents Weather Stations Pressure Air Temp Water Temp Dewpoint Dewpoint Depression Visibility Wind Speed Wind Dir Waves Ship Positions

Celsius Malaga

Last reported at 2017-Jun-03 11:48 UTC. Time now 2017-Jun-23 10:38 UTC.
Position S 24°42' W 046°42'.
Warning: this ship's position is 19 days out of date.

Length 147 m; draft 8.1 m.

MMSI: 538003434.

Date/timePositionNaut miles runAvg speedWind from/ knotsBaromVisibWave heightAir tempDewpointWater temp
2017-Jun-03 11:48S 24°42' W 046°42'512.7
2017-Jun-03 11:24S 24°38' W 046°38'612.7
2017-Jun-03 10:55S 24°33' W 046°34'512.7
2017-Jun-03 10:30S 24°29' W 046°31'612.7
2017-Jun-03 10:00S 24°24' W 046°26'612.6
2017-Jun-03 09:30S 24°18' W 046°24'612.7
2017-Jun-03 09:00S 24°11' W 046°24'612.6
2017-Jun-03 08:30S 24°05' W 046°22'510.7
2017-Jun-03 08:00S 24°00' W 046°20'  
2017-May-31 15:18S 23°59' W 046°17'4 7.7
2017-May-31 14:49S 24°01' W 046°21'7 8.9
2017-May-31 14:00S 24°07' W 046°25'3 6.3
2017-May-31 13:30S 24°10' W 046°27'1 1.6
2017-May-31 13:00S 24°11' W 046°26'4 7.4
2017-May-31 12:30S 24°14' W 046°24'4 8.6
2017-May-31 12:00S 24°18' W 046°22'612.2
2017-May-31 11:30S 24°24' W 046°21'812.8
2017-May-31 10:55S 24°31' W 046°20'4 9.5
2017-May-31 10:29S 24°33' W 046°16'  

Dump ship's entire track history